Burleson, TX

10:26 AM CDT on April 28, 2017 (GMT -0500)
Fort Worth Spinks | | Change Station

Elev 699 ft 32.57 °N, 97.30 °W | Updated 28 minutes ago

Mostly Cloudy
Mostly Cloudy
75 °F
Feels Like 75 °F
N
13
Wind Variable Wind from South
Gusts 21 mph

Today
High -- | Low -- °F
--% Chance of Precip.
Yesterday
High -- | Low -- °F
Precip. -- in
Pressure 29.65 in
Visibility 7.0 miles
Clouds Mostly Cloudy 2100 ft
Mostly Cloudy 2800 ft
Dew Point 64 °F
Humidity 69%
Rainfall 0.00 in
Snow Depth Not available.
6:45 AM 8:08 PM
Waxing Crescent, 7% visible
METAR KFWS 281458Z 19011G18KT 7SM BKN021 BKN028 24/18 A2965
Pressure 29.65 in
Visibility 7.0 miles
Clouds Mostly Cloudy 2100 ft
Mostly Cloudy 2800 ft
Dew Point 64 °F
Humidity 69%
Rainfall 0.00 in
Snow Depth Not available.
6:45 AM 8:08 PM
Waxing Crescent, 7% visible
METAR KFWS 281458Z 19011G18KT 7SM BKN021 BKN028 24/18 A2965

Get Severe Weather Alerts

Thanks for signing up!

Be on the lookout for a verification email in your inbox.

You'll start receiving the daily forecast at 8 AM.

×

10-Day Weather Forecast

Almanac

Astronomy

Apr. 28, 2017 Rise Set
Actual Time
Civil Twilight
Nautical Twilight
Astronomical Twilight
Moon
Length of Visible Light
Length of Day
Tomorrow will be .
, % of the Moon is Illuminated

Today's Extremes

State Highs State Lows

Community

WunderPhotos

WunderBlog® & News

Nearby

Air Quality

  Air Quality AQ Index Pollutant
Not available.

Snow Depth

Station Depth Elevation

Earthquake Activity

City Distance Mag. Time & Date
Minimum magnitude displayed is 2.5.

Coastal Water Temperatures

Place Temperature

Stations

Nearby Weather Stations

Station Location Temp. Windchill Dew Point Humidity Wind Precip. Elev Updated Type
                   

Watches & Warnings

There are currently no watches in effect.